Stevens Point, WI (54481)

10:23 AM CDT on September 29, 2016 (GMT -0500)
2nd Street North | | Change Station

Elev 1115 ft 44.54 °N, 89.59 °W | Updated 1 minute ago

Clear
Clear
58.3 °F
Feels Like 58.3 °F
N
1.2
Wind Variable Wind from NW
Gusts 3.7 mph

Today
High -- | Low -- °F
--% Chance of Precip.
Yesterday
High -- | Low -- °F
Precip. -- in
Pressure 30.41 in
Visibility 10.0 miles
Clouds Clear
Dew Point 52 °F
Humidity 79%
Rainfall 0.00 in
Snow Depth Not available.
6:54 AM 6:41 PM
Waning Crescent, 2% visible
METAR KSTE 291515Z AUTO 02006KT 10SM CLR 15/11 A3041 RMK AO2 T01540107
Pressure 30.41 in
Visibility 10.0 miles
Clouds Clear
Dew Point 52 °F
Humidity 79%
Rainfall 0.00 in
Snow Depth Not available.
6:54 AM 6:41 PM
Waning Crescent, 2% visible
METAR KSTE 291515Z AUTO 02006KT 10SM CLR 15/11 A3041 RMK AO2 T01540107

10-Day Weather Forecast

Almanac

Astronomy

Sep. 29, 2016 Rise Set
Actual Time
Civil Twilight
Nautical Twilight
Astronomical Twilight
Moon
Length of Visible Light
Length of Day
Tomorrow will be .
, % of the Moon is Illuminated

Today's Extremes

State Highs State Lows

Community

WunderPhotos

Upload Photos

1,942,496 photos uploaded!

WunderBlog® & News

Nearby

Air Quality

  Air Quality AQ Index Pollutant
Not available.

Snow Depth

Station Depth Elevation

Earthquake Activity

City Distance Mag. Time & Date
Minimum magnitude displayed is 2.5.

Coastal Water Temperatures

Place Temperature

Stations

Nearby Weather Stations

Station Location Temp. Windchill Dew Point Humidity Wind Precip. Elev Updated Type
                   

Watches & Warnings

There are currently no watches in effect.